Time;durP1;ratioP1;P1;durP2;ratioP2;P2;SDS_P1;SDS_P2;PMS_P1;PMS_P2;Temp;Humidity;BMP_temperature;BMP_pressure;BME280_temperature;BME280_humidity;BME280_pressure;Samples;Min_cycle;Max_cycle;Signal;HPM_P1;HPM_P2
2023/09/01 00:03:32;;;;;;;5.40;2.90;;;;;;;-145.68;100.00;73883.59;10418181;28;20193;-64
2023/09/01 00:08:33;;;;;;;7.32;2.83;;;;;;;-145.68;100.00;73879.59;10418034;28;20691;-64
2023/09/01 00:13:33;;;;;;;3.22;2.63;;;;;;;-145.68;100.00;73879.59;10417697;28;20223;-64
2023/09/01 00:18:34;;;;;;;6.18;2.72;;;;;;;-145.68;100.00;73871.59;10417625;28;20213;-64
2023/09/01 00:23:34;;;;;;;4.97;2.50;;;;;;;-145.68;100.00;73859.59;10414197;28;20193;-65
2023/09/01 00:28:34;;;;;;;7.88;3.53;;;;;;;-145.68;100.00;73851.59;10417162;28;20235;-65
2023/09/01 00:33:35;;;;;;;4.47;2.50;;;;;;;-145.68;100.00;73863.59;10383077;28;20285;-64
2023/09/01 00:38:35;;;;;;;3.55;2.58;;;;;;;-145.68;100.00;73865.59;10415758;28;20212;-65
2023/09/01 00:43:36;;;;;;;5.40;2.63;;;;;;;-145.68;100.00;73869.59;10416826;28;20197;-65
2023/09/01 00:48:37;;;;;;;4.20;2.60;;;;;;;-145.68;100.00;73885.56;10398281;28;20228;-66
2023/09/01 00:53:37;;;;;;;4.47;2.50;;;;;;;-145.68;100.00;73893.56;10415576;28;20185;-65
2023/09/01 00:58:38;;;;;;;6.97;2.47;;;;;;;-145.68;100.00;73887.56;10398150;28;20212;-65
2023/09/01 01:03:40;;;;;;;7.53;2.30;;;;;;;-145.68;100.00;73889.56;10415923;28;20242;-65
2023/09/01 01:09:08;;;;;;;4.28;2.33;;;;;;;-145.68;100.00;73861.59;10414733;28;20247;-66
2023/09/01 01:14:30;;;;;;;7.17;2.90;;;;;;;-145.68;100.00;73855.59;10397673;28;20262;-65
2023/09/01 01:20:16;;;;;;;7.37;2.87;;;;;;;-145.68;100.00;73857.59;10397283;28;20251;-65
2023/09/01 01:25:16;;;;;;;5.37;2.70;;;;;;;-145.68;100.00;73831.59;10364650;28;20299;-65
2023/09/01 01:30:17;;;;;;;5.15;2.75;;;;;;;-145.68;100.00;73863.59;10414691;28;20377;-66
2023/09/01 01:35:37;;;;;;;8.63;2.80;;;;;;;-145.68;100.00;73851.59;10414513;28;20193;-65
2023/09/01 01:40:42;;;;;;;6.50;3.00;;;;;;;-145.68;100.00;73855.59;10396372;28;20561;-66
2023/09/01 01:45:43;;;;;;;11.65;3.20;;;;;;;-145.68;100.00;73861.59;10414103;28;20728;-66
2023/09/01 01:50:44;;;;;;;11.27;3.65;;;;;;;-145.68;100.00;73873.59;10415751;23;20232;-69
2023/09/01 01:55:45;;;;;;;7.50;3.35;;;;;;;-145.68;100.00;73893.56;10412836;28;20180;-69
2023/09/01 02:00:45;;;;;;;9.73;3.47;;;;;;;-145.68;100.00;73879.59;10371473;28;20213;-69
2023/09/01 02:05:45;;;;;;;6.43;3.35;;;;;;;-145.68;100.00;73887.56;10372514;28;20209;-70
2023/09/01 02:10:47;;;;;;;8.20;3.27;;;;;;;-145.68;100.00;73899.56;10354825;28;20235;-69
2023/09/01 02:15:54;;;;;;;9.93;3.43;;;;;;;-145.68;100.00;73919.56;10372208;28;20257;-69
2023/09/01 02:20:54;;;;;;;5.20;2.73;;;;;;;-145.68;100.00;73939.56;10354419;28;20267;-69
2023/09/01 02:25:56;;;;;;;8.90;3.50;;;;;;;-145.68;100.00;73963.53;10372167;28;20659;-69
2023/09/01 02:30:56;;;;;;;8.03;3.57;;;;;;;-145.68;100.00;73975.53;10371564;28;20220;-69
2023/09/01 02:36:24;;;;;;;7.70;3.37;;;;;;;-145.68;100.00;73969.53;10354052;28;20219;-69
2023/09/01 02:41:25;;;;;;;8.57;3.30;;;;;;;-145.68;100.00;73987.53;10353639;28;20213;-69
2023/09/01 02:46:25;;;;;;;8.77;3.70;;;;;;;-145.68;100.00;73995.53;10371287;28;20185;-69
2023/09/01 02:51:26;;;;;;;10.20;3.50;;;;;;;-145.68;100.00;73985.53;10370597;28;20225;-68
2023/09/01 02:56:26;;;;;;;7.33;3.70;;;;;;;-145.68;100.00;74013.53;10371006;28;20193;-68
2023/09/01 03:01:27;;;;;;;5.33;3.03;;;;;;;-145.68;100.00;74003.53;10352451;28;20693;-69
2023/09/01 03:06:28;;;;;;;9.07;3.30;;;;;;;-145.68;100.00;73997.53;10370304;28;20275;-69
2023/09/01 03:11:28;;;;;;;8.73;3.60;;;;;;;-145.68;100.00;74007.53;10370192;28;20691;-69
2023/09/01 03:16:30;;;;;;;6.33;3.20;;;;;;;-145.68;100.00;74003.53;10352127;28;20192;-69
2023/09/01 03:21:31;;;;;;;8.43;3.30;;;;;;;-145.68;100.00;74019.50;10352248;28;20213;-69
2023/09/01 03:26:32;;;;;;;12.43;3.83;;;;;;;-145.68;100.00;74039.50;10369662;28;20189;-70
2023/09/01 03:31:32;;;;;;;11.87;4.17;;;;;;;-145.68;100.00;74023.50;10368619;28;20715;-68
2023/09/01 03:36:36;;;;;;;7.10;4.00;;;;;;;-145.68;100.00;74009.53;10352369;28;20209;-69
2023/09/01 03:41:37;;;;;;;12.10;4.07;;;;;;;-145.68;100.00;73993.53;10369623;28;20209;-69
2023/09/01 03:46:37;;;;;;;7.90;3.43;;;;;;;-145.68;100.00;73971.53;10369907;28;20298;-69
2023/09/01 03:51:38;;;;;;;10.47;3.80;;;;;;;-145.68;100.00;73957.53;10351530;28;20602;-69
2023/09/01 03:56:38;;;;;;;7.17;3.37;;;;;;;-145.68;100.00;73943.56;10351899;28;20189;-69
2023/09/01 04:01:38;;;;;;;6.03;3.60;;;;;;;-145.68;100.00;73913.56;10351588;28;20209;-69
2023/09/01 04:06:40;;;;;;;6.20;3.47;;;;;;;-145.68;100.00;73889.56;10351696;28;20190;-69
2023/09/01 04:11:40;;;;;;;9.13;3.50;;;;;;;-145.68;100.00;73873.59;10356356;28;20355;-70
2023/09/01 04:16:41;;;;;;;11.53;3.20;;;;;;;-145.68;100.00;73867.59;10375526;28;20606;-68
2023/09/01 04:21:41;;;;;;;10.80;3.35;;;;;;;-145.68;100.00;73871.59;10375531;28;20214;-70
2023/09/01 04:26:41;;;;;;;7.83;3.37;;;;;;;-145.68;100.00;73859.59;10375000;28;20220;-70
2023/09/01 04:31:42;;;;;;;9.03;3.10;;;;;;;-145.68;100.00;73865.59;10376387;28;20216;-69
2023/09/01 04:36:42;;;;;;;4.07;3.03;;;;;;;-145.68;100.00;73869.59;10358620;28;20200;-69
2023/09/01 04:41:43;;;;;;;10.43;3.57;;;;;;;-145.68;100.00;73867.59;10358135;28;20205;-70
2023/09/01 04:46:44;;;;;;;5.73;2.60;;;;;;;-145.68;100.00;73855.59;10358209;28;20194;-70
2023/09/01 04:51:44;;;;;;;7.97;3.47;;;;;;;-145.68;100.00;73845.59;10373832;28;20240;-69
2023/09/01 04:56:44;;;;;;;8.23;3.13;;;;;;;-145.68;100.00;73833.59;10375473;28;20625;-70
2023/09/01 05:01:46;;;;;;;8.50;3.17;;;;;;;-145.68;100.00;73831.59;10373700;28;20216;-69
2023/09/01 05:06:46;;;;;;;11.60;3.92;;;;;;;-145.68;100.00;73831.59;10374853;28;20552;-69
2023/09/01 05:11:47;;;;;;;8.73;3.75;;;;;;;-145.68;100.00;73817.63;10349897;28;20217;-69
2023/09/01 05:16:47;;;;;;;7.07;2.80;;;;;;;-145.68;100.00;73803.63;10374172;28;20197;-70
2023/09/01 05:21:48;;;;;;;7.03;3.30;;;;;;;-145.68;100.00;73793.63;10373832;28;20583;-70
2023/09/01 05:26:48;;;;;;;6.20;3.10;;;;;;;-145.68;100.00;73785.63;10357082;28;20185;-71
2023/09/01 05:31:49;;;;;;;10.65;3.10;;;;;;;-145.68;100.00;73771.63;10357180;28;20296;-71
2023/09/01 05:36:50;;;;;;;11.50;3.10;;;;;;;-145.68;100.00;73759.66;10375401;28;20189;-71
2023/09/01 05:41:50;;;;;;;7.63;3.28;;;;;;;-145.68;100.00;73739.66;10357348;28;20216;-69
2023/09/01 05:46:51;;;;;;;9.13;3.50;;;;;;;-145.68;100.00;73727.66;10358412;28;20185;-69
2023/09/01 05:51:52;;;;;;;6.80;3.33;;;;;;;-145.68;100.00;73693.69;10359445;28;20323;-71
2023/09/01 05:56:53;;;;;;;8.85;3.28;;;;;;;-145.68;100.00;73681.69;10374260;28;20584;-71
2023/09/01 06:01:53;;;;;;;6.93;3.00;;;;;;;-145.68;100.00;73643.72;10373717;28;20213;-70
2023/09/01 06:06:54;;;;;;;7.53;2.88;;;;;;;-145.68;100.00;73629.72;10356343;28;20736;-71
2023/09/01 06:11:55;;;;;;;8.88;2.90;;;;;;;-145.68;100.00;73585.75;10373655;28;20220;-70
2023/09/01 06:16:55;;;;;;;5.55;2.70;;;;;;;-145.68;100.00;73509.78;10373557;28;20189;-70
2023/09/01 06:21:56;;;;;;;13.38;3.42;;;;;;;-145.68;90.90;73409.84;10355452;28;20600;-70
2023/09/01 06:26:56;;;;;;;7.60;3.30;;;;;;;-145.68;85.41;73429.84;10372307;28;20201;-70
2023/09/01 06:31:56;;;;;;;8.93;3.20;;;;;;;-145.68;82.71;73383.88;10372276;28;20217;-70
2023/09/01 06:36:57;;;;;;;9.25;2.95;;;;;;;-145.68;79.29;73293.94;10371071;28;20193;-69
2023/09/01 06:41:58;;;;;;;7.15;2.75;;;;;;;-145.68;73.41;73261.94;10371645;28;20220;-70
2023/09/01 06:47:00;;;;;;;8.25;2.88;;;;;;;-145.68;72.30;73257.94;10370623;28;20220;-70
2023/09/01 06:52:01;;;;;;;12.70;3.33;;;;;;;-145.68;68.85;73235.97;10370976;28;20245;-69
2023/09/01 06:57:01;;;;;;;8.70;2.70;;;;;;;-145.68;68.66;73182.00;10371031;28;20200;-69
2023/09/01 07:02:02;;;;;;;8.38;2.42;;;;;;;-145.68;64.62;73116.03;10364666;28;20274;-68
2023/09/01 07:07:02;;;;;;;4.90;2.60;;;;;;;-145.68;64.77;73112.03;10366091;28;20271;-69
2023/09/01 07:12:04;;;;;;;9.45;2.75;;;;;;;-145.68;61.79;73058.09;10366321;28;20217;-68
2023/09/01 07:17:04;;;;;;;5.95;2.40;;;;;;;-145.68;59.81;73040.09;10366283;28;20243;-68
2023/09/01 07:22:05;;;;;;;7.90;2.72;;;;;;;-145.68;61.30;73048.09;10363732;28;20213;-67
2023/09/01 07:27:06;;;;;;;6.97;2.55;;;;;;;-145.68;59.87;73058.09;10358333;28;20193;-68
2023/09/01 07:32:06;;;;;;;5.28;2.40;;;;;;;-145.68;57.79;73042.09;10360770;28;20225;-68
2023/09/01 07:37:07;;;;;;;6.43;2.35;;;;;;;-145.68;58.42;73014.13;10353986;28;20280;-68
2023/09/01 07:42:07;;;;;;;5.28;2.30;;;;;;;-145.68;57.65;73036.09;10366695;28;20602;-69
2023/09/01 07:47:08;;;;;;;6.10;2.63;;;;;;;-145.68;56.43;72998.13;10372120;28;20227;-69
2023/09/01 07:52:08;;;;;;;5.30;2.10;;;;;;;-145.68;56.21;73030.09;10360268;28;20241;-69
2023/09/01 07:57:09;;;;;;;8.07;2.50;;;;;;;-145.68;56.78;73080.06;10353487;28;20616;-69
2023/09/01 08:02:09;;;;;;;7.00;2.10;;;;;;;-145.68;55.51;73010.13;10434154;23;20267;-70
2023/09/01 08:07:09;;;;;;;3.83;2.03;;;;;;;-145.68;57.00;73086.06;10435566;28;20282;-70
2023/09/01 08:12:10;;;;;;;4.32;2.17;;;;;;;-145.68;55.28;73016.13;10436283;28;20212;-70
2023/09/01 08:17:10;;;;;;;4.32;2.17;;;;;;;-145.68;54.87;72964.16;10436050;28;20271;-70
2023/09/01 08:22:11;;;;;;;6.72;2.72;;;;;;;-145.68;55.41;72960.16;10448957;28;20204;-70
2023/09/01 08:27:11;;;;;;;5.60;2.00;;;;;;;-145.68;57.26;72996.13;10391559;28;20267;-71
2023/09/01 08:32:12;;;;;;;4.35;2.47;;;;;;;-145.68;51.94;72832.25;10378724;28;20209;-71
2023/09/01 08:37:15;;;;;;;6.65;2.40;;;;;;;-145.68;52.32;72802.28;10374891;28;20277;-71
2023/09/01 08:42:17;;;;;;;5.93;2.65;;;;;;;-145.68;48.13;72614.44;10451842;28;20220;-71
2023/09/01 08:47:22;;;;;;;7.15;1.95;;;;;;;-145.68;45.12;72406.59;10456276;28;20204;-70
2023/09/01 08:52:23;;;;;;;8.07;2.00;;;;;;;-145.68;45.67;72520.50;10456922;28;20242;-73
2023/09/01 09:04:01;;;;;;;5.28;2.50;;;;;;;-145.68;47.80;72540.50;10497859;22;20239;-71
2023/09/01 09:09:16;;;;;;;4.47;1.95;;;;;;;-145.68;45.56;72518.50;10437254;28;20216;-70
2023/09/01 09:14:17;;;;;;;3.65;2.20;;;;;;;-145.68;49.11;72704.34;10412934;28;20192;-70
2023/09/01 09:19:19;;;;;;;5.65;1.70;;;;;;;-145.68;49.08;72694.38;10414388;28;20185;-70
2023/09/01 09:24:34;;;;;;;2.03;1.42;;;;;;;-145.68;49.31;72630.41;10414286;28;20197;-70
2023/09/01 09:29:41;;;;;;;2.03;1.17;;;;;;;-145.68;48.13;72552.47;10413958;28;20285;-71
2023/09/01 09:34:41;;;;;;;1.92;1.05;;;;;;;-145.68;50.15;72690.38;10413250;28;20196;-71
2023/09/01 09:39:43;;;;;;;0.93;0.93;;;;;;;-145.68;51.54;72684.38;10412099;28;20208;-71
2023/09/01 09:44:43;;;;;;;2.25;0.80;;;;;;;-145.68;50.84;72718.34;10409428;28;20196;-70
2023/09/01 09:49:44;;;;;;;1.08;0.68;;;;;;;-145.68;50.53;72684.38;10411826;28;20231;-69
2023/09/01 09:54:48;;;;;;;0.93;0.63;;;;;;;-145.68;50.90;72656.41;10411788;28;20232;-70
2023/09/01 09:59:51;;;;;;;0.47;0.47;;;;;;;-145.68;49.89;72664.38;10415603;28;20327;-70
2023/09/01 10:04:53;;;;;;;0.60;0.60;;;;;;;-145.68;48.33;72556.47;10416401;28;20655;-70
2023/09/01 10:09:55;;;;;;;0.60;0.60;;;;;;;-145.68;47.02;72404.59;10410866;28;20221;-70
2023/09/01 10:14:56;;;;;;;0.63;0.60;;;;;;;-145.68;47.40;72500.53;10413971;28;20651;-71
2023/09/01 10:19:56;;;;;;;0.50;0.50;;;;;;;-145.68;47.02;72404.59;10393313;28;20204;-71
2023/09/01 10:25:08;;;;;;;1.10;0.60;;;;;;;-145.68;45.76;72288.72;10393925;28;20184;-71
2023/09/01 10:30:28;;;;;;;0.73;0.60;;;;;;;-145.68;43.61;72140.84;10393075;28;20601;-72
2023/09/01 10:35:42;;;;;;;0.77;0.70;;;;;;;-145.68;44.30;72184.81;10411267;28;20197;-71
2023/09/01 10:40:49;;;;;;;1.33;0.80;;;;;;;-145.68;47.06;72584.44;10410966;28;20201;-71
2023/09/01 10:46:16;;;;;;;0.93;0.50;;;;;;;-145.68;47.67;72502.53;10410758;28;20197;-72
2023/09/01 10:51:17;;;;;;;0.93;0.85;;;;;;;-145.68;51.21;72676.38;10403312;28;20260;-71
2023/09/01 10:56:19;;;;;;;0.60;0.60;;;;;;;-145.68;53.28;72848.25;10410610;28;20572;-71
2023/09/01 11:01:30;;;;;;;0.70;0.70;;;;;;;-145.68;51.86;72786.28;10408663;28;20216;-71
2023/09/01 11:06:56;;;;;;;0.98;0.85;;;;;;;-145.68;51.83;72692.38;10407966;28;20275;-71
2023/09/01 11:11:56;;;;;;;1.70;1.00;;;;;;;-145.68;52.89;72730.34;10410039;28;20266;-71
2023/09/01 11:16:56;;;;;;;2.75;1.05;;;;;;;-145.68;53.88;72882.22;10408564;28;20239;-70
2023/09/01 11:21:57;;;;;;;1.38;0.88;;;;;;;-145.68;56.45;72840.25;10389051;28;20219;-69
2023/09/01 11:26:58;;;;;;;1.17;0.95;;;;;;;-145.68;55.54;72842.25;10409538;28;20573;-68
2023/09/01 11:31:58;;;;;;;1.42;1.33;;;;;;;-145.68;54.16;72768.31;10409876;28;20724;-70
2023/09/01 11:36:58;;;;;;;1.05;0.93;;;;;;;-145.68;51.44;72664.38;10409433;28;20200;-70
2023/09/01 11:41:59;;;;;;;1.67;1.20;;;;;;;-145.68;51.00;72592.44;10410005;28;20208;-71
2023/09/01 11:47:00;;;;;;;1.65;1.23;;;;;;;-145.68;50.61;72568.47;10408304;28;20685;-71
2023/09/01 11:52:00;;;;;;;1.45;0.90;;;;;;;-145.68;51.53;72604.44;10388591;28;20217;-70
2023/09/01 11:57:13;;;;;;;1.95;1.05;;;;;;;-145.68;50.71;72596.44;10410696;28;20538;-69
2023/09/01 12:02:14;;;;;;;1.45;1.00;;;;;;;-145.68;50.00;72608.44;10408070;28;20240;-69
2023/09/01 12:07:25;;;;;;;1.10;1.00;;;;;;;-145.68;49.68;72584.44;10407765;28;20283;-70
2023/09/01 12:12:36;;;;;;;4.85;1.20;;;;;;;-145.68;52.74;72604.44;10408423;28;20252;-70
2023/09/01 12:17:36;;;;;;;1.05;0.95;;;;;;;-145.68;50.71;72624.41;10416621;28;20189;-70
2023/09/01 12:22:37;;;;;;;1.25;0.80;;;;;;;-145.68;52.59;72702.34;10407240;28;20282;-69
2023/09/01 12:27:37;;;;;;;1.65;1.10;;;;;;;-145.68;54.99;72772.31;10407866;28;20256;-69
2023/09/01 12:32:37;;;;;;;2.88;1.27;;;;;;;-145.68;56.60;72792.28;10410632;28;20220;-69
2023/09/01 12:37:38;;;;;;;2.85;1.40;;;;;;;-145.68;58.92;72830.25;10415319;28;20185;-70
2023/09/01 12:42:38;;;;;;;16.38;10.88;;;;;;;-145.68;59.04;72964.16;10414312;28;20205;-69
2023/09/01 12:47:38;;;;;;;5.85;1.30;;;;;;;-145.68;58.93;72856.22;10413947;28;20209;-69
2023/09/01 12:52:39;;;;;;;4.80;1.42;;;;;;;-145.68;59.22;72872.22;10397099;28;20224;-69
2023/09/01 13:04:00;;;;;;;3.08;1.20;;;;;;;-145.68;59.94;72880.22;10413152;28;20217;-70
2023/09/01 13:09:03;;;;;;;2.58;1.08;;;;;;;-145.68;60.05;72828.25;10413167;28;20209;-70
2023/09/01 13:14:03;;;;;;;1.30;1.08;;;;;;;-145.68;60.17;72828.25;10408825;28;20815;-70
2023/09/01 13:19:03;;;;;;;1.17;0.90;;;;;;;-145.68;59.26;72788.28;10411605;28;20196;-70
2023/09/01 13:24:04;;;;;;;2.35;1.40;;;;;;;-145.68;59.77;72852.25;10411874;28;20316;-70
2023/09/01 13:29:05;;;;;;;2.70;1.08;;;;;;;-145.68;60.66;72860.22;10410424;28;20224;-70
2023/09/01 13:34:05;;;;;;;1.27;1.10;;;;;;;-145.68;61.56;72852.25;10412195;28;20702;-70
2023/09/01 13:39:06;;;;;;;1.20;0.93;;;;;;;-145.68;61.65;72912.19;10410991;28;20794;-70
2023/09/01 13:44:06;;;;;;;0.95;0.95;;;;;;;-145.68;61.34;72852.25;10411794;28;20208;-70
2023/09/01 13:49:08;;;;;;;1.50;1.10;;;;;;;-145.68;61.47;72884.22;10413163;28;20228;-70
2023/09/01 13:54:09;;;;;;;1.95;1.27;;;;;;;-145.68;62.66;72854.25;10412548;28;20215;-71
2023/09/01 13:59:10;;;;;;;1.20;1.13;;;;;;;-145.68;61.80;72834.25;10411865;28;20547;-70
2023/09/01 14:04:10;;;;;;;2.60;1.77;;;;;;;-145.68;61.89;72852.25;10460845;23;20243;-69
2023/09/01 14:09:10;;;;;;;2.42;1.23;;;;;;;-145.68;62.84;72856.22;10453955;28;20216;-68
2023/09/01 14:14:11;;;;;;;1.25;1.15;;;;;;;-145.68;63.59;72882.22;10451204;28;20278;-70
2023/09/01 14:19:11;;;;;;;1.38;0.80;;;;;;;-145.68;61.61;72812.28;10472564;28;20191;-67
2023/09/01 14:24:12;;;;;;;1.10;1.00;;;;;;;-145.68;60.67;72792.28;10488515;28;20276;-69
2023/09/01 14:29:12;;;;;;;1.88;1.33;;;;;;;-145.68;62.34;72842.25;10488540;28;20223;-68
2023/09/01 14:34:13;;;;;;;3.13;1.02;;;;;;;-145.68;63.56;72852.25;10483310;28;20223;-68
2023/09/01 14:39:13;;;;;;;1.55;1.45;;;;;;;-145.68;64.29;72882.22;10488161;28;20199;-68
2023/09/01 14:44:13;;;;;;;1.80;1.05;;;;;;;-145.68;65.43;72898.19;10487535;28;20219;-69
2023/09/01 14:49:14;;;;;;;0.75;0.75;;;;;;;-145.68;65.58;72910.19;10487608;28;20215;-70
2023/09/01 14:54:14;;;;;;;2.40;0.80;;;;;;;-145.68;65.09;72910.19;10487412;28;20261;-70
2023/09/01 14:59:15;;;;;;;0.85;0.70;;;;;;;-145.68;65.54;72928.19;10487242;28;20198;-70
2023/09/01 15:04:15;;;;;;;0.80;0.80;;;;;;;-145.68;64.20;72954.16;10481770;28;20301;-70
2023/09/01 15:09:16;;;;;;;0.50;0.50;;;;;;;-145.68;64.39;72960.16;10485824;28;20216;-70
2023/09/01 15:14:16;;;;;;;0.50;0.50;;;;;;;-145.68;64.38;72972.16;10475009;28;20693;-69
2023/09/01 15:19:16;;;;;;;1.52;0.77;;;;;;;-145.68;65.86;73016.13;10476166;28;20556;-70
2023/09/01 15:24:17;;;;;;;0.55;0.55;;;;;;;-145.68;66.91;73004.13;10475706;28;20235;-70
2023/09/01 15:29:17;;;;;;;0.55;0.55;;;;;;;-145.68;68.26;72968.16;10475923;28;20337;-69
2023/09/01 15:34:18;;;;;;;1.38;1.15;;;;;;;-145.68;69.01;72952.16;10457396;28;20218;-70
2023/09/01 15:39:18;;;;;;;1.13;1.00;;;;;;;-145.68;71.30;72960.16;10471922;28;20567;-70
2023/09/01 15:44:19;;;;;;;3.53;1.20;;;;;;;-145.68;73.01;73006.13;10476441;28;20211;-69
2023/09/01 15:49:19;;;;;;;1.00;0.95;;;;;;;-145.68;74.94;73042.09;10470727;28;20584;-69
2023/09/01 15:54:19;;;;;;;2.30;1.60;;;;;;;-145.68;76.35;73036.09;10478155;28;20207;-69
2023/09/01 15:59:20;;;;;;;1.88;1.42;;;;;;;-145.68;78.68;73036.09;10486121;28;20245;-69
2023/09/01 16:04:21;;;;;;;1.42;1.33;;;;;;;-145.68;78.02;73040.09;10485212;28;20229;-69
2023/09/01 16:09:21;;;;;;;2.83;1.33;;;;;;;-145.68;78.71;73028.09;10475852;28;20249;-68
2023/09/01 16:14:21;;;;;;;1.48;1.38;;;;;;;-145.68;79.96;73052.09;10493892;28;20230;-69
2023/09/01 16:19:22;;;;;;;1.15;1.10;;;;;;;-145.68;79.67;73052.09;10465118;28;20183;-69
2023/09/01 16:24:22;;;;;;;1.85;1.20;;;;;;;-145.68;80.58;73074.06;10494620;28;20289;-68
2023/09/01 16:29:22;;;;;;;1.85;1.30;;;;;;;-145.68;82.28;73088.06;10467470;28;20219;-68
2023/09/01 16:34:23;;;;;;;1.55;1.45;;;;;;;-145.68;85.32;73088.06;10474831;28;20701;-69
2023/09/01 16:39:25;;;;;;;1.50;1.40;;;;;;;-145.68;87.26;73102.06;10483743;28;20266;-68
2023/09/01 16:44:25;;;;;;;2.00;1.70;;;;;;;-145.68;92.75;73144.03;10483641;28;20200;-69
2023/09/01 16:49:26;;;;;;;4.50;4.15;;;;;;;-145.68;100.00;73188.00;10478556;28;20219;-69
2023/09/01 16:54:26;;;;;;;1.77;1.67;;;;;;;-145.68;100.00;73186.00;10491383;28;20270;-69
2023/09/01 16:59:29;;;;;;;1.73;1.63;;;;;;;-145.68;100.00;73219.97;10463150;28;20271;-68
2023/09/01 17:04:31;;;;;;;4.63;4.00;;;;;;;-145.68;100.00;73227.97;10459321;28;20602;-68
2023/09/01 17:09:32;;;;;;;1.88;1.77;;;;;;;-145.68;100.00;73263.94;10493003;28;20215;-68
2023/09/01 17:14:32;;;;;;;2.72;2.05;;;;;;;-145.68;100.00;73283.94;10492969;28;20203;-67
2023/09/01 17:19:32;;;;;;;2.45;2.25;;;;;;;-145.68;100.00;73313.91;10492079;28;20187;-68
2023/09/01 17:24:33;;;;;;;2.78;2.45;;;;;;;-145.68;100.00;73335.91;10492660;28;20211;-68
2023/09/01 17:29:34;;;;;;;2.42;2.22;;;;;;;-145.68;100.00;73361.88;10492675;28;20235;-67
2023/09/01 17:34:35;;;;;;;8.45;3.40;;;;;;;-145.68;100.00;73385.88;10492203;28;20214;-69
2023/09/01 17:39:35;;;;;;;4.28;3.20;;;;;;;-145.68;100.00;73405.84;10491523;28;20666;-70
2023/09/01 17:44:36;;;;;;;7.30;4.50;;;;;;;-145.68;100.00;73447.81;10491442;28;20632;-68
2023/09/01 17:49:37;;;;;;;4.18;3.83;;;;;;;-145.68;100.00;73473.81;10491573;28;20207;-67
2023/09/01 17:54:37;;;;;;;7.95;4.25;;;;;;;-145.68;100.00;73489.81;10490755;28;20306;-69
2023/09/01 17:59:37;;;;;;;5.10;4.60;;;;;;;-145.68;100.00;73521.78;10490942;28;20205;-69
2023/09/01 18:04:38;;;;;;;4.72;4.25;;;;;;;-145.68;100.00;73533.78;10472855;28;20242;-69
2023/09/01 18:09:38;;;;;;;5.55;5.05;;;;;;;-145.68;100.00;73557.75;10490228;28;20577;-69
2023/09/01 18:14:38;;;;;;;6.72;4.70;;;;;;;-145.68;100.00;73571.75;10479991;28;20212;-69
2023/09/01 18:19:39;;;;;;;4.93;4.43;;;;;;;-145.68;100.00;73575.75;10479988;28;20250;-69
2023/09/01 18:24:40;;;;;;;5.07;4.30;;;;;;;-145.68;100.00;73575.75;10473892;28;20203;-70
2023/09/01 18:29:40;;;;;;;5.18;3.92;;;;;;;-145.68;100.00;73579.75;10474605;28;20210;-69
2023/09/01 18:34:41;;;;;;;5.32;4.75;;;;;;;-145.68;100.00;73591.75;10487330;28;20195;-68
2023/09/01 18:39:42;;;;;;;5.32;4.82;;;;;;;-145.68;100.00;73603.72;10484579;28;20244;-68
2023/09/01 18:44:42;;;;;;;6.60;5.90;;;;;;;-145.68;100.00;73611.72;10476775;28;20218;-69
2023/09/01 18:49:49;;;;;;;7.43;6.72;;;;;;;-145.68;100.00;73631.72;10482175;28;20238;-69
2023/09/01 18:54:49;;;;;;;7.10;6.40;;;;;;;-145.68;100.00;73633.72;10488640;28;20214;-68
2023/09/01 18:59:55;;;;;;;7.72;5.82;;;;;;;-145.68;100.00;73641.72;10488947;28;20540;-68
2023/09/01 19:04:56;;;;;;;7.20;5.57;;;;;;;-145.68;100.00;73631.72;10470953;28;20260;-68
2023/09/01 19:09:56;;;;;;;5.50;5.00;;;;;;;-145.68;100.00;73641.72;10457642;28;20713;-69
2023/09/01 19:15:00;;;;;;;8.60;5.97;;;;;;;-145.68;100.00;73633.72;10467824;28;20203;-67
2023/09/01 19:20:00;;;;;;;7.53;6.40;;;;;;;-145.68;100.00;73639.72;10447134;28;20284;-68
2023/09/01 19:25:01;;;;;;;9.20;7.75;;;;;;;-145.68;100.00;73655.69;10486935;28;20297;-69
2023/09/01 19:30:01;;;;;;;8.73;6.03;;;;;;;-145.68;100.00;73653.69;10469802;28;20844;-69
2023/09/01 19:35:02;;;;;;;7.50;5.70;;;;;;;-145.68;100.00;73673.69;10473662;28;20716;-69
2023/09/01 19:40:08;;;;;;;9.30;7.40;;;;;;;-145.68;100.00;73701.69;10475013;28;20237;-70
2023/09/01 19:45:33;;;;;;;7.53;6.53;;;;;;;-145.68;100.00;73709.69;10494014;28;20241;-70
2023/09/01 19:50:34;;;;;;;7.70;5.68;;;;;;;-145.68;100.00;73711.66;10478141;28;20261;-70
2023/09/01 19:55:34;;;;;;;8.00;6.63;;;;;;;-145.68;100.00;73711.66;10495576;28;20188;-71
2023/09/01 20:00:38;;;;;;;6.03;5.45;;;;;;;-145.68;100.00;73705.69;10476461;28;20262;-68
2023/09/01 20:05:39;;;;;;;7.20;5.80;;;;;;;-145.68;100.00;73707.69;10475379;22;20337;-71
2023/09/01 20:10:39;;;;;;;5.57;4.95;;;;;;;-145.68;100.00;73709.69;10436569;28;20250;-71
2023/09/01 20:15:40;;;;;;;6.18;5.13;;;;;;;-145.68;100.00;73711.66;10458049;28;20772;-72
2023/09/01 20:20:40;;;;;;;6.28;5.68;;;;;;;-145.68;100.00;73711.66;10457586;28;20188;-74
2023/09/01 20:25:42;;;;;;;7.45;4.97;;;;;;;-145.68;100.00;73707.69;10452891;28;20208;-74
2023/09/01 20:30:42;;;;;;;7.15;5.15;;;;;;;-145.68;100.00;73707.69;10453494;28;20720;-74
2023/09/01 20:35:43;;;;;;;6.50;4.90;;;;;;;-145.68;100.00;73703.69;10452247;28;20199;-74
2023/09/01 20:40:44;;;;;;;8.27;5.32;;;;;;;-145.68;100.00;73705.69;10457004;28;20204;-73
2023/09/01 20:45:44;;;;;;;9.68;5.75;;;;;;;-145.68;100.00;73707.69;10456651;28;20234;-74
2023/09/01 20:50:45;;;;;;;9.43;6.35;;;;;;;-145.68;100.00;73713.66;10456343;28;20221;-74
2023/09/01 20:55:45;;;;;;;8.23;6.68;;;;;;;-145.68;100.00;73715.66;10450813;28;20698;-74
2023/09/01 21:00:45;;;;;;;12.50;7.22;;;;;;;-145.68;100.00;73721.66;10456150;28;20554;-72
2023/09/01 21:05:46;;;;;;;11.80;7.53;;;;;;;-145.68;100.00;73737.66;10493094;28;20235;-73
2023/09/01 21:10:46;;;;;;;10.95;8.00;;;;;;;-145.68;100.00;73753.66;10496877;28;20211;-73
2023/09/01 21:15:49;;;;;;;10.43;7.50;;;;;;;-145.68;100.00;73755.66;10493186;28;20219;-72
2023/09/01 21:20:49;;;;;;;11.45;7.95;;;;;;;-145.68;100.00;73763.66;10496409;28;20929;-72
2023/09/01 21:25:50;;;;;;;14.38;8.55;;;;;;;-145.68;100.00;73771.63;10496547;28;20294;-72
2023/09/01 21:30:51;;;;;;;11.82;8.07;;;;;;;-145.68;100.00;73777.63;10495950;28;20218;-72
2023/09/01 21:35:52;;;;;;;10.02;7.25;;;;;;;-145.68;100.00;73765.66;10492159;28;20620;-72
2023/09/01 21:40:52;;;;;;;6.97;6.10;;;;;;;-145.68;100.00;73757.66;10495750;28;20180;-72
2023/09/01 21:45:52;;;;;;;14.85;6.63;;;;;;;-145.68;100.00;73771.63;10495414;28;20260;-72
2023/09/01 21:50:53;;;;;;;10.52;6.65;;;;;;;-145.68;100.00;73773.63;10491687;28;20209;-72
2023/09/01 21:55:53;;;;;;;9.38;7.03;;;;;;;-145.68;100.00;73773.63;10494982;28;20245;-72
2023/09/01 22:00:53;;;;;;;11.05;6.47;;;;;;;-145.68;100.00;73767.66;10495065;28;20668;-72
2023/09/01 22:05:54;;;;;;;9.35;6.30;;;;;;;-145.68;100.00;73771.63;10494252;28;20730;-72
2023/09/01 22:10:54;;;;;;;11.25;6.60;;;;;;;-145.68;100.00;73773.63;10490542;28;20245;-72
2023/09/01 22:15:55;;;;;;;11.48;6.82;;;;;;;-145.68;100.00;73791.63;10494381;28;20215;-72
2023/09/01 22:20:55;;;;;;;11.57;6.40;;;;;;;-145.68;100.00;73781.63;10494151;28;20183;-71
2023/09/01 22:25:55;;;;;;;8.80;6.82;;;;;;;-145.68;100.00;73807.63;10494021;28;20223;-71
2023/09/01 22:30:56;;;;;;;10.98;7.25;;;;;;;-145.68;100.00;73803.63;10490035;28;20590;-72
2023/09/01 22:35:56;;;;;;;12.98;6.88;;;;;;;-145.68;100.00;73807.63;10493395;28;20209;-72
2023/09/01 22:40:59;;;;;;;11.55;6.55;;;;;;;-145.68;100.00;73821.63;10493533;28;20625;-71
2023/09/01 22:46:00;;;;;;;8.50;5.50;;;;;;;-145.68;100.00;73795.63;10489411;28;20211;-71
2023/09/01 22:51:00;;;;;;;10.88;6.30;;;;;;;-145.68;100.00;73789.63;10488993;28;20207;-72
2023/09/01 22:56:00;;;;;;;7.43;5.13;;;;;;;-145.68;100.00;73795.63;10493002;28;20215;-71